createdAt,value
2022-11-18T00:04:38.130Z,95470.53
2022-11-18T00:09:39.796Z,95465.59
2022-11-18T00:14:41.489Z,95464.97
2022-11-18T00:19:43.201Z,95458.91
2022-11-18T00:24:44.877Z,95452.00
2022-11-18T00:29:46.588Z,95450.69
2022-11-18T00:34:48.416Z,95447.97
2022-11-18T00:39:50.085Z,95441.97
2022-11-18T00:44:51.872Z,95436.00
2022-11-18T00:49:53.517Z,95418.59
2022-11-18T00:54:55.164Z,95415.88
2022-11-18T00:59:56.827Z,95411.53
2022-11-18T01:04:58.493Z,95409.28
2022-11-18T01:10:00.163Z,95414.75
2022-11-18T01:15:01.852Z,95421.34
2022-11-18T01:20:03.939Z,95408.50
2022-11-18T01:25:05.844Z,95403.81
2022-11-18T01:30:08.525Z,95406.69
2022-11-18T01:35:11.656Z,95401.28
2022-11-18T01:40:13.350Z,95395.94
2022-11-18T01:45:26.278Z,95390.28
2022-11-18T01:50:28.451Z,95390.59
2022-11-18T01:55:34.820Z,95402.13
2022-11-18T02:00:37.356Z,95401.84
2022-11-18T02:05:40.556Z,95405.88
2022-11-18T02:10:42.386Z,95408.50
2022-11-18T02:16:11.094Z,95413.53
2022-11-18T02:21:45.238Z,95414.34
2022-11-18T02:27:13.224Z,95417.69
2022-11-18T02:32:26.286Z,95407.47
2022-11-18T02:37:47.354Z,95417.31
2022-11-18T02:42:54.695Z,95419.59
2022-11-18T02:48:01.179Z,95408.50
2022-11-18T02:53:05.700Z,95409.09
2022-11-18T02:58:08.777Z,95408.59
2022-11-18T03:03:31.841Z,95407.59
2022-11-18T03:08:39.457Z,95414.16
2022-11-18T03:14:06.717Z,95410.94
2022-11-18T03:19:20.263Z,95418.22
2022-11-18T03:24:30.390Z,95420.16
2022-11-18T03:29:37.211Z,95424.69
2022-11-18T03:34:45.115Z,95429.44
2022-11-18T03:39:52.429Z,95441.16
2022-11-18T03:45:06.374Z,95445.34
2022-11-18T03:50:15.878Z,95448.00
2022-11-18T03:55:22.755Z,95447.81
2022-11-18T04:00:29.688Z,95458.41
2022-11-18T04:05:36.141Z,95456.09
2022-11-18T04:10:46.140Z,95463.38
2022-11-18T04:15:48.030Z,95466.41
2022-11-18T04:20:49.748Z,95471.84
2022-11-18T04:25:51.359Z,95473.97
2022-11-18T04:30:52.991Z,95467.44
2022-11-18T04:35:54.738Z,95471.16
2022-11-18T04:40:56.488Z,95471.53
2022-11-18T04:45:58.379Z,95472.06
2022-11-18T04:51:04.716Z,95474.28
2022-11-18T04:56:07.217Z,95451.81
2022-11-18T05:01:08.907Z,95455.66
2022-11-18T05:06:10.615Z,95443.75
2022-11-18T05:11:30.598Z,95437.25
2022-11-18T05:16:32.521Z,95437.06
2022-11-18T05:21:34.207Z,95437.69
2022-11-18T05:26:35.947Z,95433.00
2022-11-18T05:31:37.875Z,95442.53
2022-11-18T05:36:39.625Z,95446.97
2022-11-18T05:42:00.023Z,95459.03
2022-11-18T05:47:01.812Z,95460.75
2022-11-18T05:52:03.785Z,95456.81
2022-11-18T05:57:05.639Z,95467.22
2022-11-18T06:02:16.397Z,95455.78
2022-11-18T06:07:47.421Z,95471.06
2022-11-18T06:12:52.670Z,95465.00
2022-11-18T06:18:10.613Z,95475.94
2022-11-18T06:23:13.385Z,95491.41
2022-11-18T06:28:16.865Z,95500.19
2022-11-18T06:33:18.988Z,95499.38
2022-11-18T06:38:24.315Z,95502.03
2022-11-18T06:43:41.736Z,95502.50
2022-11-18T06:48:43.552Z,95526.66
2022-11-18T06:53:45.275Z,95527.28
2022-11-18T06:58:47.631Z,95539.91
2022-11-18T07:03:49.600Z,95541.81
2022-11-18T07:08:52.225Z,95550.31
2022-11-18T07:13:54.352Z,95562.84
2022-11-18T07:18:56.483Z,95578.81
2022-11-18T07:23:58.235Z,95578.47
2022-11-18T07:29:00.189Z,95591.09
2022-11-18T07:34:01.822Z,95593.28
2022-11-18T07:39:05.992Z,95610.19
2022-11-18T07:44:07.780Z,95628.25
2022-11-18T07:49:11.913Z,95631.06
2022-11-18T07:54:16.971Z,95638.28
2022-11-18T07:59:19.030Z,95639.38
2022-11-18T08:04:20.789Z,95652.53
2022-11-18T08:09:22.558Z,95652.59
2022-11-18T08:14:24.538Z,95659.22
2022-11-18T08:19:26.278Z,95665.84
2022-11-18T08:24:27.924Z,95671.25
2022-11-18T08:29:29.898Z,95675.81
2022-11-18T08:34:32.024Z,95672.13
2022-11-18T08:39:33.744Z,95680.00
2022-11-18T08:44:35.861Z,95696.38
2022-11-18T08:49:37.505Z,95702.31
2022-11-18T08:54:39.495Z,95704.38
2022-11-18T08:59:41.168Z,95701.72
2022-11-18T09:04:43.112Z,95701.09
2022-11-18T09:09:44.776Z,95709.84
2022-11-18T09:15:12.776Z,95722.34
2022-11-18T09:20:09.139Z,95719.72
2022-11-18T09:25:11.050Z,95715.34
2022-11-18T09:30:13.164Z,95732.34
2022-11-18T09:35:15.012Z,95740.84
2022-11-18T09:40:18.366Z,95747.38
2022-11-18T09:45:28.462Z,95750.97
2022-11-18T09:55:53.675Z,95755.91
2022-11-18T10:00:55.414Z,95755.59
2022-11-18T10:06:03.823Z,95758.28
2022-11-18T10:11:17.396Z,95753.88
2022-11-18T10:16:57.707Z,95758.56
2022-11-18T10:21:59.667Z,95766.50
2022-11-18T10:27:02.507Z,95775.97
2022-11-18T10:32:14.668Z,95770.22
2022-11-18T10:37:52.525Z,95768.56
2022-11-18T10:42:50.576Z,95775.31
2022-11-18T10:47:59.732Z,95768.19
2022-11-18T10:53:01.706Z,95761.59
2022-11-18T10:58:13.186Z,95769.66
2022-11-18T11:03:20.599Z,95765.72
2022-11-18T11:08:37.429Z,95760.19
2022-11-18T11:13:43.895Z,95759.84
2022-11-18T11:18:56.462Z,95767.19
2022-11-18T11:23:58.328Z,95770.47
2022-11-18T11:29:14.072Z,95783.66
2022-11-18T11:34:28.548Z,95776.09
2022-11-18T11:39:48.194Z,95783.41
2022-11-18T11:45:29.758Z,95782.59
2022-11-18T11:51:05.003Z,95784.22
2022-11-18T11:56:37.165Z,95788.22
2022-11-18T12:02:16.210Z,95790.47
2022-11-18T12:08:04.180Z,95796.50
2022-11-18T12:13:30.791Z,95802.78
2022-11-18T12:18:42.065Z,95800.59
2022-11-18T12:24:22.971Z,95798.94
2022-11-18T12:29:27.624Z,95803.31
2022-11-18T12:34:35.168Z,95808.69
2022-11-18T12:39:36.762Z,95806.38
2022-11-18T12:44:39.439Z,95807.22
2022-11-18T12:49:44.039Z,95815.44
2022-11-18T12:54:48.809Z,95821.47
2022-11-18T12:59:50.636Z,95828.09
2022-11-18T13:05:10.796Z,95827.16
2022-11-18T13:10:23.415Z,95821.19
2022-11-18T13:15:44.175Z,95830.47
2022-11-18T13:21:24.783Z,95832.63
2022-11-18T13:26:33.152Z,95830.75
2022-11-18T13:31:52.939Z,95839.97
2022-11-18T13:36:56.961Z,95841.38
2022-11-18T13:42:24.771Z,95834.78
2022-11-18T13:47:26.389Z,95850.88
2022-11-18T13:52:33.870Z,95850.88
2022-11-18T13:57:36.704Z,95845.16
2022-11-18T14:02:46.099Z,95846.28
2022-11-18T14:08:01.053Z,95858.31
2022-11-18T14:13:04.204Z,95851.25
2022-11-18T14:18:19.052Z,95848.25
2022-11-18T14:23:35.621Z,95859.97
2022-11-18T14:28:38.550Z,95860.53
2022-11-18T14:33:40.149Z,95858.38
2022-11-18T14:44:11.102Z,95863.47
2022-11-18T14:49:17.009Z,95864.84
2022-11-18T14:54:26.356Z,95867.78
2022-11-18T14:59:29.690Z,95880.63
2022-11-18T15:04:31.416Z,95877.09
2022-11-18T15:09:33.159Z,95885.50
2022-11-18T15:14:37.599Z,95894.22
2022-11-18T15:19:40.689Z,95893.44
2022-11-18T15:24:42.410Z,95900.69
2022-11-18T15:29:44.222Z,95908.84
2022-11-18T15:34:46.067Z,95913.19
2022-11-18T15:39:50.472Z,95918.31
2022-11-18T15:44:52.149Z,95915.88
2022-11-18T15:49:56.590Z,95923.78
2022-11-18T15:54:58.316Z,95909.28
2022-11-18T16:00:00.012Z,95924.25
2022-11-18T16:05:01.798Z,95927.81
2022-11-18T16:10:39.062Z,95920.66
2022-11-18T16:15:43.356Z,95930.72
2022-11-18T16:20:45.241Z,95931.25
2022-11-18T16:25:46.966Z,95945.72
2022-11-18T16:31:07.714Z,95943.56
2022-11-18T16:36:09.445Z,95951.69
2022-11-18T16:41:29.558Z,95963.66
2022-11-18T16:46:32.818Z,95966.44
2022-11-18T16:51:35.520Z,95971.88
2022-11-18T16:56:40.357Z,95978.97
2022-11-18T17:01:42.630Z,95986.63
2022-11-18T17:06:46.309Z,95986.63
2022-11-18T17:11:48.841Z,95987.41
2022-11-18T17:16:52.072Z,95987.09
2022-11-18T17:21:54.344Z,95992.00
2022-11-18T17:26:56.461Z,95985.97
2022-11-18T17:31:58.337Z,95994.75
2022-11-18T17:37:06.273Z,95995.84
2022-11-18T17:42:14.574Z,95995.84
2022-11-18T17:47:16.285Z,96008.94
2022-11-18T17:52:19.304Z,96017.41
2022-11-18T17:57:21.086Z,96020.41
2022-11-18T18:02:22.778Z,96025.28
2022-11-18T18:07:24.560Z,96028.88
2022-11-18T18:12:44.531Z,96035.94
2022-11-18T18:17:49.292Z,96039.53
2022-11-18T18:22:50.962Z,96047.19
2022-11-18T18:27:52.793Z,96052.09
2022-11-18T18:32:54.608Z,96063.28
2022-11-18T18:37:56.592Z,96056.97
2022-11-18T18:42:58.310Z,96057.78
2022-11-18T18:48:03.886Z,96054.28
2022-11-18T18:53:05.519Z,96067.41
2022-11-18T18:58:07.196Z,96050.59
2022-11-18T19:03:08.914Z,96062.56
2022-11-18T19:08:10.588Z,96060.66
2022-11-18T19:13:12.250Z,96075.63
2022-11-18T19:18:13.952Z,96080.34
2022-11-18T19:23:17.981Z,96090.72
2022-11-18T19:28:19.922Z,96084.72
2022-11-18T19:33:21.761Z,96091.50
2022-11-18T19:38:23.415Z,96094.22
2022-11-18T19:43:27.157Z,96105.69
2022-11-18T19:48:29.429Z,96107.03
2022-11-18T19:53:34.923Z,96107.31
2022-11-18T19:58:38.272Z,96106.75
2022-11-18T20:03:41.529Z,96104.88
2022-11-18T20:08:45.014Z,96122.06
2022-11-18T20:13:47.412Z,96117.72
2022-11-18T20:19:00.279Z,96122.34
2022-11-18T20:24:03.178Z,96116.34
2022-11-18T20:29:06.361Z,96125.34
2022-11-18T20:34:11.807Z,96132.97
2022-11-18T20:39:15.378Z,96142.53
2022-11-18T20:44:17.029Z,96137.88
2022-11-18T20:49:18.770Z,96141.44
2022-11-18T20:54:20.591Z,96141.41
2022-11-18T20:59:22.243Z,96144.41
2022-11-18T21:04:23.923Z,96138.69
2022-11-18T21:09:26.367Z,96137.63
2022-11-18T21:14:28.043Z,96141.72
2022-11-18T21:19:32.214Z,96151.56
2022-11-18T21:24:34.749Z,96142.81
2022-11-18T21:29:36.452Z,96147.16
2022-11-18T21:34:38.145Z,96159.47
2022-11-18T21:39:39.915Z,96164.63
2022-11-18T21:44:41.588Z,96171.47
2022-11-18T21:49:43.421Z,96174.50
2022-11-18T21:54:45.063Z,96175.59
2022-11-18T21:59:46.771Z,96170.13
2022-11-18T22:04:54.828Z,96181.53
2022-11-18T22:09:56.468Z,96187.25
2022-11-18T22:14:58.074Z,96176.31
2022-11-18T22:19:59.753Z,96184.78
2022-11-18T22:25:01.392Z,96185.88
2022-11-18T22:30:03.193Z,96196.50
2022-11-18T22:35:05.254Z,96206.03
2022-11-18T22:40:07.628Z,96199.50
2022-11-18T22:45:09.480Z,96197.34
2022-11-18T22:50:11.105Z,96194.34
2022-11-18T22:55:13.059Z,96199.53
2022-11-18T23:00:15.843Z,96201.72
2022-11-18T23:05:17.571Z,96197.38
2022-11-18T23:10:19.251Z,96211.50
2022-11-18T23:15:21.166Z,96210.16
2022-11-18T23:20:22.831Z,96204.44
2022-11-18T23:25:24.490Z,96206.88
2022-11-18T23:30:26.228Z,96203.63
2022-11-18T23:35:27.936Z,96211.25
2022-11-18T23:40:30.974Z,96214.78
2022-11-18T23:45:32.808Z,96206.63
2022-11-18T23:50:39.148Z,96209.88
2022-11-18T23:55:41.068Z,96212.09
